Time,TemperatureF,DewpointF,PressureIn,WindDirection,WindDirectionDegrees,WindSpeedMPH,WindSpeedGustMPH,Humidity,HourlyPrecipIn,Conditions,Clouds,dailyrainin,SolarRadiationWatts/m^2,SoftwareType,DateUTC
2015-07-05 00:01:00,61.3,58.5,30.04,West,265,0.0,0.0,90,0.00,,,0.00,0.0,meteobridge,2015-07-05 04:01:00,
2015-07-05 00:06:00,61.3,58.6,30.04,West,265,0.0,0.0,91,0.00,,,0.00,0.0,meteobridge,2015-07-05 04:06:00,
2015-07-05 00:11:00,61.3,58.6,30.04,West,265,0.0,0.0,91,0.00,,,0.00,0.0,meteobridge,2015-07-05 04:11:00,
2015-07-05 00:16:00,61.3,58.6,30.04,West,265,0.0,0.0,91,0.00,,,0.00,0.0,meteobridge,2015-07-05 04:16:00,
2015-07-05 00:21:00,61.3,58.6,30.04,West,265,0.0,0.0,91,0.00,,,0.00,0.0,meteobridge,2015-07-05 04:21:00,
2015-07-05 00:26:00,61.3,58.6,30.04,West,265,0.0,0.0,91,0.00,,,0.00,0.0,meteobridge,2015-07-05 04:26:00,
2015-07-05 00:31:00,61.3,58.6,30.05,West,265,0.0,0.0,91,0.00,,,0.00,0.0,meteobridge,2015-07-05 04:31:00,
2015-07-05 00:36:00,61.2,58.5,30.05,West,265,0.0,0.0,91,0.00,,,0.00,0.0,meteobridge,2015-07-05 04:36:00,
2015-07-05 00:41:00,61.0,58.3,30.04,West,265,0.0,0.0,91,0.00,,,0.00,0.0,meteobridge,2015-07-05 04:41:00,
2015-07-05 00:46:00,61.0,58.3,30.05,West,265,0.0,0.0,91,0.00,,,0.00,0.0,meteobridge,2015-07-05 04:46:00,
2015-07-05 00:51:00,61.0,58.3,30.05,West,265,0.0,0.0,91,0.00,,,0.00,0.0,meteobridge,2015-07-05 04:51:00,
2015-07-05 00:56:00,60.8,58.1,30.05,West,265,0.0,0.0,91,0.00,,,0.00,0.0,meteobridge,2015-07-05 04:56:00,
2015-07-05 01:01:00,60.6,57.9,30.05,West,265,0.0,0.0,91,0.00,,,0.00,0.0,meteobridge,2015-07-05 05:01:00,
2015-07-05 01:06:00,60.4,57.6,30.05,West,265,0.0,0.0,90,0.00,,,0.00,0.0,meteobridge,2015-07-05 05:06:00,
2015-07-05 01:11:00,60.3,57.6,30.04,West,265,0.0,0.0,91,0.00,,,0.00,0.0,meteobridge,2015-07-05 05:11:00,
2015-07-05 01:16:00,60.3,57.6,30.05,West,265,0.0,0.0,91,0.00,,,0.00,0.0,meteobridge,2015-07-05 05:16:00,
2015-07-05 01:21:00,60.1,57.4,30.05,West,265,0.0,0.0,91,0.00,,,0.00,0.0,meteobridge,2015-07-05 05:21:00,
2015-07-05 01:26:00,59.9,57.2,30.05,West,265,0.0,0.0,91,0.00,,,0.00,0.0,meteobridge,2015-07-05 05:26:00,
2015-07-05 01:31:00,59.7,57.0,30.05,West,265,0.0,0.0,91,0.00,,,0.00,0.0,meteobridge,2015-07-05 05:31:00,
2015-07-05 01:36:00,59.5,57.2,30.05,West,265,0.0,0.0,92,0.00,,,0.00,0.0,meteobridge,2015-07-05 05:36:00,
2015-07-05 01:41:00,59.5,57.2,30.05,West,265,0.0,0.0,92,0.00,,,0.00,0.0,meteobridge,2015-07-05 05:41:00,
2015-07-05 01:47:00,59.7,57.4,30.05,West,265,0.0,0.0,92,0.00,,,0.00,0.0,meteobridge,2015-07-05 05:47:00,
2015-07-05 01:52:00,59.7,57.4,30.05,West,265,0.0,0.0,92,0.00,,,0.00,0.0,meteobridge,2015-07-05 05:52:00,
2015-07-05 01:57:00,59.7,57.4,30.05,West,265,0.0,0.0,92,0.00,,,0.00,0.0,meteobridge,2015-07-05 05:57:00,
2015-07-05 02:02:00,59.5,57.2,30.05,West,265,0.0,0.0,92,0.00,,,0.00,0.0,meteobridge,2015-07-05 06:02:00,
2015-07-05 02:07:00,59.5,57.2,30.05,West,265,0.0,0.0,92,0.00,,,0.00,0.0,meteobridge,2015-07-05 06:07:00,
2015-07-05 02:12:00,59.5,56.8,30.05,West,265,0.0,0.0,91,0.00,,,0.00,0.0,meteobridge,2015-07-05 06:12:00,
2015-07-05 02:17:00,59.4,56.7,30.05,West,265,0.0,0.0,91,0.00,,,0.00,0.0,meteobridge,2015-07-05 06:17:00,
2015-07-05 02:22:00,59.4,56.7,30.05,West,265,0.0,0.0,91,0.00,,,0.00,0.0,meteobridge,2015-07-05 06:22:00,
2015-07-05 02:27:00,59.2,56.5,30.05,West,265,0.0,0.0,91,0.00,,,0.00,0.0,meteobridge,2015-07-05 06:27:00,
2015-07-05 02:32:00,59.2,56.8,30.05,West,265,0.0,0.0,92,0.00,,,0.00,0.0,meteobridge,2015-07-05 06:32:00,
2015-07-05 02:37:00,59.0,56.7,30.05,West,265,0.0,0.0,92,0.00,,,0.00,0.0,meteobridge,2015-07-05 06:37:00,
2015-07-05 02:42:00,59.0,56.7,30.05,West,265,0.0,0.0,92,0.00,,,0.00,0.0,meteobridge,2015-07-05 06:42:00,
2015-07-05 02:47:00,59.0,56.7,30.05,West,265,0.0,0.0,92,0.00,,,0.00,0.0,meteobridge,2015-07-05 06:47:00,
2015-07-05 02:52:00,58.8,56.5,30.05,West,265,0.0,0.0,92,0.00,,,0.00,0.0,meteobridge,2015-07-05 06:52:00,
2015-07-05 02:57:00,58.8,56.5,30.05,West,265,0.0,0.0,92,0.00,,,0.00,0.0,meteobridge,2015-07-05 06:57:00,
2015-07-05 03:02:00,58.8,56.5,30.05,West,265,0.0,0.0,92,0.00,,,0.00,0.0,meteobridge,2015-07-05 07:02:00,
2015-07-05 03:07:00,58.8,56.8,30.05,West,265,0.0,0.0,93,0.00,,,0.00,0.0,meteobridge,2015-07-05 07:07:00,
2015-07-05 03:13:00,58.8,56.8,30.05,West,265,0.0,0.0,93,0.00,,,0.00,0.0,meteobridge,2015-07-05 07:13:00,
2015-07-05 03:18:00,58.6,56.7,30.05,West,265,0.9,4.0,93,0.00,,,0.00,0.0,meteobridge,2015-07-05 07:18:00,
2015-07-05 03:23:00,58.6,56.7,30.05,West,265,0.0,1.0,93,0.00,,,0.00,0.0,meteobridge,2015-07-05 07:23:00,
2015-07-05 03:28:00,58.6,56.7,30.05,West,265,0.0,0.0,93,0.00,,,0.00,0.0,meteobridge,2015-07-05 07:28:00,
2015-07-05 03:33:00,58.5,56.5,30.06,West,265,0.0,0.0,93,0.00,,,0.00,0.0,meteobridge,2015-07-05 07:33:00,
2015-07-05 03:38:00,58.5,56.5,30.06,West,265,0.0,0.0,93,0.00,,,0.00,0.0,meteobridge,2015-07-05 07:38:00,
2015-07-05 03:43:00,58.5,56.5,30.06,West,265,0.0,0.0,93,0.00,,,0.00,0.0,meteobridge,2015-07-05 07:43:00,
2015-07-05 03:48:00,58.3,56.3,30.06,West,265,0.0,0.0,93,0.00,,,0.00,0.0,meteobridge,2015-07-05 07:48:00,
2015-07-05 03:53:00,58.3,56.3,30.06,West,265,0.0,0.0,93,0.00,,,0.00,0.0,meteobridge,2015-07-05 07:53:00,
2015-07-05 03:58:00,58.3,56.3,30.06,West,265,0.9,1.0,93,0.00,,,0.00,0.0,meteobridge,2015-07-05 07:58:00,
2015-07-05 04:03:00,58.1,56.1,30.07,West,265,0.0,0.0,93,0.00,,,0.00,0.0,meteobridge,2015-07-05 08:03:00,
2015-07-05 04:08:00,58.1,56.1,30.07,West,265,0.0,0.0,93,0.00,,,0.00,0.0,meteobridge,2015-07-05 08:08:00,
2015-07-05 04:13:00,57.9,55.9,30.07,West,265,0.0,0.0,93,0.00,,,0.00,0.0,meteobridge,2015-07-05 08:13:00,
2015-07-05 04:18:00,57.9,55.9,30.07,West,265,0.0,0.0,93,0.00,,,0.00,0.0,meteobridge,2015-07-05 08:18:00,
2015-07-05 04:23:00,57.9,55.9,30.07,West,265,0.0,0.0,93,0.00,,,0.00,0.0,meteobridge,2015-07-05 08:23:00,
2015-07-05 04:28:00,57.9,55.9,30.07,West,265,0.0,0.0,93,0.00,,,0.00,0.0,meteobridge,2015-07-05 08:28:00,
2015-07-05 04:33:00,57.7,55.8,30.07,West,265,0.0,0.0,93,0.00,,,0.00,0.0,meteobridge,2015-07-05 08:33:00,
2015-07-05 04:38:00,57.7,55.8,30.07,West,265,0.0,0.0,93,0.00,,,0.00,0.0,meteobridge,2015-07-05 08:38:00,
2015-07-05 04:43:00,57.7,55.8,30.07,West,265,0.0,0.0,93,0.00,,,0.00,0.0,meteobridge,2015-07-05 08:43:00,
2015-07-05 04:48:00,57.7,55.8,30.07,West,265,0.0,0.0,93,0.00,,,0.00,0.0,meteobridge,2015-07-05 08:48:00,
2015-07-05 04:53:00,57.6,55.8,30.07,West,265,0.0,0.0,94,0.00,,,0.00,0.0,meteobridge,2015-07-05 08:53:00,
2015-07-05 04:58:00,57.6,55.8,30.07,West,265,0.0,0.0,94,0.00,,,0.00,0.0,meteobridge,2015-07-05 08:58:00,
2015-07-05 05:03:00,57.6,55.8,30.07,West,265,0.0,0.0,94,0.00,,,0.00,0.0,meteobridge,2015-07-05 09:03:00,
2015-07-05 05:08:00,57.4,55.6,30.07,West,265,0.0,0.0,94,0.00,,,0.00,0.0,meteobridge,2015-07-05 09:08:00,
2015-07-05 05:13:00,57.4,55.6,30.07,West,265,0.0,0.0,94,0.00,,,0.00,0.0,meteobridge,2015-07-05 09:13:00,
2015-07-05 05:19:00,57.4,55.6,30.07,West,265,0.0,0.0,94,0.00,,,0.00,0.0,meteobridge,2015-07-05 09:19:00,
2015-07-05 05:24:00,57.4,55.6,30.07,West,265,0.0,0.0,94,0.00,,,0.00,0.0,meteobridge,2015-07-05 09:24:00,
2015-07-05 05:29:00,57.2,55.4,30.07,West,265,0.0,0.0,94,0.00,,,0.00,0.0,meteobridge,2015-07-05 09:29:00,
2015-07-05 05:34:00,57.2,55.4,30.08,West,265,0.0,0.0,94,0.00,,,0.00,0.0,meteobridge,2015-07-05 09:34:00,
2015-07-05 05:39:00,57.2,55.4,30.08,West,265,0.0,0.0,94,0.00,,,0.00,0.0,meteobridge,2015-07-05 09:39:00,
2015-07-05 05:44:00,57.0,55.2,30.08,West,265,0.0,0.0,94,0.00,,,0.00,0.0,meteobridge,2015-07-05 09:44:00,
2015-07-05 05:49:00,57.0,55.2,30.08,West,265,0.0,0.0,94,0.00,,,0.00,0.0,meteobridge,2015-07-05 09:49:00,
2015-07-05 05:54:00,56.8,55.2,30.08,West,265,0.0,0.0,94,0.00,,,0.00,0.0,meteobridge,2015-07-05 09:54:00,
2015-07-05 05:59:00,56.8,55.2,30.09,West,265,0.0,0.0,94,0.00,,,0.00,0.0,meteobridge,2015-07-05 09:59:00,
2015-07-05 06:04:00,57.0,55.6,30.08,West,265,0.0,0.0,95,0.00,,,0.00,0.0,meteobridge,2015-07-05 10:04:00,
2015-07-05 06:09:00,57.0,55.2,30.09,West,265,0.0,0.0,94,0.00,,,0.00,0.0,meteobridge,2015-07-05 10:09:00,
2015-07-05 06:14:00,57.0,55.6,30.08,West,265,0.0,0.0,95,0.00,,,0.00,5.0,meteobridge,2015-07-05 10:14:00,
2015-07-05 06:19:00,57.0,55.6,30.09,West,265,0.0,0.0,95,0.00,,,0.00,5.0,meteobridge,2015-07-05 10:19:00,
2015-07-05 06:24:00,57.0,55.6,30.09,SSW,211,4.0,4.0,95,0.00,,,0.00,9.0,meteobridge,2015-07-05 10:24:00,
2015-07-05 06:29:00,57.0,55.6,30.09,SW,226,0.0,0.0,95,0.00,,,0.00,12.0,meteobridge,2015-07-05 10:29:00,
2015-07-05 06:34:00,57.2,55.8,30.09,SW,226,0.0,0.0,95,0.00,,,0.00,16.0,meteobridge,2015-07-05 10:34:00,
2015-07-05 06:39:00,57.2,55.8,30.09,SW,226,0.0,0.0,95,0.00,,,0.00,21.0,meteobridge,2015-07-05 10:39:00,
2015-07-05 06:44:00,57.4,55.9,30.09,SW,226,0.0,0.0,95,0.00,,,0.00,25.0,meteobridge,2015-07-05 10:44:00,
2015-07-05 06:49:00,57.2,55.8,30.09,SW,226,0.0,0.0,95,0.00,,,0.00,30.0,meteobridge,2015-07-05 10:49:00,
2015-07-05 06:54:00,57.4,55.9,30.10,SW,226,0.0,0.0,95,0.00,,,0.00,35.0,meteobridge,2015-07-05 10:54:00,
2015-07-05 06:59:00,57.4,55.9,30.10,SW,226,0.0,0.0,95,0.00,,,0.00,42.0,meteobridge,2015-07-05 10:59:00,
2015-07-05 07:04:00,57.6,56.1,30.10,SW,226,0.0,0.0,95,0.00,,,0.00,49.0,meteobridge,2015-07-05 11:04:00,
2015-07-05 07:09:00,57.7,56.3,30.10,SW,226,0.0,0.0,95,0.00,,,0.00,63.0,meteobridge,2015-07-05 11:09:00,
2015-07-05 07:14:00,57.7,56.3,30.09,SW,226,0.0,0.0,95,0.00,,,0.00,77.0,meteobridge,2015-07-05 11:14:00,
2015-07-05 07:19:00,57.9,56.5,30.09,SW,226,0.0,0.0,95,0.00,,,0.00,88.0,meteobridge,2015-07-05 11:19:00,
2015-07-05 07:24:00,58.3,56.8,30.09,SW,226,0.0,0.0,95,0.00,,,0.00,98.0,meteobridge,2015-07-05 11:24:00,
2015-07-05 07:29:00,58.6,57.2,30.09,SW,226,0.0,0.0,95,0.00,,,0.00,113.0,meteobridge,2015-07-05 11:29:00,
2015-07-05 07:34:00,58.8,57.4,30.09,SW,226,0.0,0.0,95,0.00,,,0.00,125.0,meteobridge,2015-07-05 11:34:00,
2015-07-05 07:39:00,59.2,57.7,30.09,SW,226,0.0,0.0,95,0.00,,,0.00,135.0,meteobridge,2015-07-05 11:39:00,
2015-07-05 07:44:00,59.5,58.1,30.09,SW,226,0.0,0.0,95,0.00,,,0.00,151.0,meteobridge,2015-07-05 11:44:00,
2015-07-05 07:50:00,60.1,58.6,30.09,SW,226,0.0,0.0,95,0.00,,,0.00,160.0,meteobridge,2015-07-05 11:50:00,
2015-07-05 07:55:00,60.4,58.6,30.09,SW,226,0.0,0.0,94,0.00,,,0.00,174.0,meteobridge,2015-07-05 11:55:00,
2015-07-05 08:00:00,61.2,59.4,30.09,SW,226,0.0,0.0,94,0.00,,,0.00,188.0,meteobridge,2015-07-05 12:00:00,
2015-07-05 08:05:00,61.9,60.1,30.09,SW,226,0.0,0.0,94,0.00,,,0.00,200.0,meteobridge,2015-07-05 12:05:00,
2015-07-05 08:10:00,62.4,60.1,30.09,SW,226,0.0,0.0,92,0.00,,,0.00,214.0,meteobridge,2015-07-05 12:10:00,
2015-07-05 08:15:00,63.1,60.1,30.09,SW,226,0.0,0.0,90,0.00,,,0.00,229.0,meteobridge,2015-07-05 12:15:00,
2015-07-05 08:20:00,63.7,60.1,30.09,SW,226,0.0,0.0,88,0.00,,,0.00,246.0,meteobridge,2015-07-05 12:20:00,
2015-07-05 08:25:00,64.2,60.3,30.09,SW,226,0.0,0.0,87,0.00,,,0.00,260.0,meteobridge,2015-07-05 12:25:00,
2015-07-05 08:30:00,64.9,61.0,30.09,SW,226,0.0,0.0,87,0.00,,,0.00,271.0,meteobridge,2015-07-05 12:30:00,
2015-07-05 08:35:00,65.5,60.8,30.09,SW,226,0.0,0.0,85,0.00,,,0.00,283.0,meteobridge,2015-07-05 12:35:00,
2015-07-05 08:40:00,65.8,60.6,30.09,SW,226,0.0,0.0,83,0.00,,,0.00,294.0,meteobridge,2015-07-05 12:40:00,
2015-07-05 08:45:00,66.4,61.3,30.09,SW,226,0.0,0.0,84,0.00,,,0.00,309.0,meteobridge,2015-07-05 12:45:00,
2015-07-05 08:50:00,66.7,61.3,30.10,SW,226,0.0,0.0,83,0.00,,,0.00,325.0,meteobridge,2015-07-05 12:50:00,
2015-07-05 08:55:00,67.1,61.7,30.10,SW,226,0.0,0.0,83,0.00,,,0.00,341.0,meteobridge,2015-07-05 12:55:00,
2015-07-05 09:00:00,67.6,61.5,30.10,SW,226,0.0,0.0,81,0.00,,,0.00,357.0,meteobridge,2015-07-05 13:00:00,
2015-07-05 09:05:00,68.2,61.7,30.10,SW,226,0.0,0.0,80,0.00,,,0.00,373.0,meteobridge,2015-07-05 13:05:00,
2015-07-05 09:10:00,68.7,62.6,30.11,SW,226,0.0,0.0,81,0.00,,,0.00,390.0,meteobridge,2015-07-05 13:10:00,
2015-07-05 09:15:00,69.3,62.8,30.11,SW,226,0.0,0.0,80,0.00,,,0.00,410.0,meteobridge,2015-07-05 13:15:00,
2015-07-05 09:20:00,69.6,62.4,30.11,SW,226,0.0,0.0,78,0.00,,,0.00,425.0,meteobridge,2015-07-05 13:20:00,
2015-07-05 09:25:00,70.2,63.3,30.11,SW,226,0.0,0.0,79,0.00,,,0.00,439.0,meteobridge,2015-07-05 13:25:00,
2015-07-05 09:30:00,70.5,62.2,30.11,SW,226,0.0,0.0,75,0.00,,,0.00,448.0,meteobridge,2015-07-05 13:30:00,
2015-07-05 09:35:00,71.1,62.8,30.11,SW,226,0.0,0.0,75,0.00,,,0.00,466.0,meteobridge,2015-07-05 13:35:00,
2015-07-05 09:40:00,71.6,63.3,30.11,SW,226,0.0,0.0,75,0.00,,,0.00,483.0,meteobridge,2015-07-05 13:40:00,
2015-07-05 09:45:00,72.1,62.2,30.11,SW,226,0.0,0.0,71,0.00,,,0.00,492.0,meteobridge,2015-07-05 13:45:00,
2015-07-05 09:50:00,72.3,62.1,30.11,SW,226,0.0,0.0,70,0.00,,,0.00,501.0,meteobridge,2015-07-05 13:50:00,
2015-07-05 09:56:00,72.9,62.4,30.11,SW,226,0.0,0.0,70,0.00,,,0.00,512.0,meteobridge,2015-07-05 13:56:00,
2015-07-05 10:01:00,73.2,62.1,30.11,SW,226,0.0,0.0,68,0.00,,,0.00,524.0,meteobridge,2015-07-05 14:01:00,
2015-07-05 10:06:00,73.8,61.7,30.11,SW,226,0.0,0.0,66,0.00,,,0.00,540.0,meteobridge,2015-07-05 14:06:00,
2015-07-05 10:11:00,73.9,61.3,30.11,SW,226,0.0,0.0,65,0.00,,,0.00,552.0,meteobridge,2015-07-05 14:11:00,
2015-07-05 10:16:00,74.5,61.9,30.11,SW,226,0.0,0.0,65,0.00,,,0.00,564.0,meteobridge,2015-07-05 14:16:00,
2015-07-05 10:21:00,74.8,63.1,30.11,SW,226,0.0,0.0,67,0.00,,,0.00,580.0,meteobridge,2015-07-05 14:21:00,
2015-07-05 10:26:00,75.4,61.9,30.11,SW,226,0.9,3.0,63,0.00,,,0.00,594.0,meteobridge,2015-07-05 14:26:00,
2015-07-05 10:31:00,75.9,61.5,30.11,SW,226,0.9,3.0,61,0.00,,,0.00,599.0,meteobridge,2015-07-05 14:31:00,
2015-07-05 10:36:00,75.9,61.5,30.11,SW,226,0.9,2.0,61,0.00,,,0.00,608.0,meteobridge,2015-07-05 14:36:00,
2015-07-05 10:41:00,76.3,61.9,30.11,SW,229,0.9,3.0,61,0.00,,,0.00,619.0,meteobridge,2015-07-05 14:41:00,
2015-07-05 10:46:00,76.5,61.5,30.11,SSW,211,0.9,5.0,60,0.00,,,0.00,636.0,meteobridge,2015-07-05 14:46:00,
2015-07-05 10:51:00,76.8,61.9,30.11,SSW,211,0.0,2.0,60,0.00,,,0.00,643.0,meteobridge,2015-07-05 14:51:00,
2015-07-05 10:56:00,77.0,62.6,30.11,SSE,151,2.0,5.0,61,0.00,,,0.00,666.0,meteobridge,2015-07-05 14:56:00,
2015-07-05 11:01:00,77.2,61.7,30.11,SSE,148,0.0,3.0,59,0.00,,,0.00,668.0,meteobridge,2015-07-05 15:01:00,
2015-07-05 11:06:00,77.5,61.2,30.11,South,175,0.0,3.0,57,0.00,,,0.00,670.0,meteobridge,2015-07-05 15:06:00,
2015-07-05 11:11:00,78.1,61.5,30.11,South,174,2.0,3.0,57,0.00,,,0.00,689.0,meteobridge,2015-07-05 15:11:00,
2015-07-05 11:16:00,78.3,61.7,30.11,SSE,164,5.0,5.0,57,0.00,,,0.00,700.0,meteobridge,2015-07-05 15:16:00,
2015-07-05 11:21:00,78.3,62.2,30.11,SSE,154,0.0,3.0,58,0.00,,,0.00,712.0,meteobridge,2015-07-05 15:21:00,
2015-07-05 11:26:00,78.1,61.2,30.11,SE,134,4.0,7.0,56,0.00,,,0.00,719.0,meteobridge,2015-07-05 15:26:00,
2015-07-05 11:31:00,78.1,61.2,30.11,South,177,0.0,3.0,56,0.00,,,0.00,724.0,meteobridge,2015-07-05 15:31:00,
2015-07-05 11:36:00,78.4,60.4,30.11,SSW,195,2.0,4.0,54,0.00,,,0.00,738.0,meteobridge,2015-07-05 15:36:00,
2015-07-05 11:41:00,78.8,60.8,30.11,South,190,2.0,4.0,54,0.00,,,0.00,745.0,meteobridge,2015-07-05 15:41:00,
2015-07-05 11:46:00,79.0,60.4,30.10,South,190,0.0,2.0,53,0.00,,,0.00,765.0,meteobridge,2015-07-05 15:46:00,
2015-07-05 11:51:00,79.2,61.5,30.10,SSW,192,4.0,5.0,55,0.00,,,0.00,780.0,meteobridge,2015-07-05 15:51:00,
2015-07-05 11:56:00,79.2,59.5,30.10,South,187,2.0,5.0,51,0.00,,,0.00,796.0,meteobridge,2015-07-05 15:56:00,
2015-07-05 12:01:00,79.3,59.7,30.10,South,179,0.9,5.0,51,0.00,,,0.00,800.0,meteobridge,2015-07-05 16:01:00,
2015-07-05 12:06:00,79.7,59.9,30.10,SE,130,2.0,3.0,51,0.00,,,0.00,793.0,meteobridge,2015-07-05 16:06:00,
2015-07-05 12:11:00,79.5,59.7,30.10,SSE,148,0.9,3.0,51,0.00,,,0.00,812.0,meteobridge,2015-07-05 16:11:00,
2015-07-05 12:16:00,80.1,60.8,30.10,NE,54,4.0,4.0,52,0.00,,,0.00,810.0,meteobridge,2015-07-05 16:16:00,
2015-07-05 12:21:00,80.1,63.5,30.10,SSE,164,2.0,5.0,57,0.00,,,0.00,816.0,meteobridge,2015-07-05 16:21:00,
2015-07-05 12:26:00,80.4,60.6,30.10,SE,138,0.0,2.0,51,0.00,,,0.00,807.0,meteobridge,2015-07-05 16:26:00,
2015-07-05 12:31:00,80.6,59.7,30.10,SW,235,2.0,6.0,49,0.00,,,0.00,812.0,meteobridge,2015-07-05 16:31:00,
2015-07-05 12:36:00,80.6,60.3,30.10,SW,232,0.9,2.0,50,0.00,,,0.00,828.0,meteobridge,2015-07-05 16:36:00,
2015-07-05 12:41:00,81.0,61.7,30.10,South,175,2.0,2.0,52,0.00,,,0.00,828.0,meteobridge,2015-07-05 16:41:00,
2015-07-05 12:47:00,81.5,62.2,30.09,South,185,0.9,4.0,52,0.00,,,0.00,833.0,meteobridge,2015-07-05 16:47:00,
2015-07-05 12:52:00,81.3,60.3,30.09,South,185,2.0,4.0,49,0.00,,,0.00,810.0,meteobridge,2015-07-05 16:52:00,
2015-07-05 12:57:00,81.5,59.9,30.09,NE,35,0.0,4.0,48,0.00,,,0.00,752.0,meteobridge,2015-07-05 16:57:00,
2015-07-05 13:02:00,81.3,57.9,30.09,SSE,152,0.9,2.0,45,0.00,,,0.00,875.0,meteobridge,2015-07-05 17:02:00,
2015-07-05 13:07:00,81.0,58.8,30.09,WSW,257,0.9,3.0,47,0.00,,,0.00,770.0,meteobridge,2015-07-05 17:07:00,
2015-07-05 13:12:00,80.6,59.2,30.09,SSE,167,0.0,5.0,48,0.00,,,0.00,645.0,meteobridge,2015-07-05 17:12:00,
2015-07-05 13:17:00,81.0,59.4,30.10,SSE,167,0.0,3.0,48,0.00,,,0.00,835.0,meteobridge,2015-07-05 17:17:00,
2015-07-05 13:22:00,81.1,60.1,30.10,SW,234,0.0,5.0,49,0.00,,,0.00,824.0,meteobridge,2015-07-05 17:22:00,
2015-07-05 13:27:00,82.0,61.5,30.10,West,262,2.0,4.0,50,0.00,,,0.00,805.0,meteobridge,2015-07-05 17:27:00,
2015-07-05 13:32:00,82.0,61.0,30.09,SW,229,2.0,2.0,49,0.00,,,0.00,744.0,meteobridge,2015-07-05 17:32:00,
2015-07-05 13:37:00,82.6,61.5,30.09,WSW,246,2.9,3.0,49,0.00,,,0.00,708.0,meteobridge,2015-07-05 17:37:00,
2015-07-05 13:42:00,82.2,59.9,30.09,SE,136,2.9,4.0,47,0.00,,,0.00,788.0,meteobridge,2015-07-05 17:42:00,
2015-07-05 13:47:00,82.0,62.6,30.09,SE,135,6.0,6.0,52,0.00,,,0.00,816.0,meteobridge,2015-07-05 17:47:00,
2015-07-05 13:52:00,81.7,61.2,30.09,SE,142,0.9,3.0,50,0.00,,,0.00,782.0,meteobridge,2015-07-05 17:52:00,
2015-07-05 13:57:00,81.5,59.9,30.09,South,175,0.0,3.0,48,0.00,,,0.00,840.0,meteobridge,2015-07-05 17:57:00,
2015-07-05 14:02:00,81.9,61.3,30.09,SW,231,2.0,5.0,50,0.00,,,0.00,777.0,meteobridge,2015-07-05 18:02:00,
2015-07-05 14:07:00,82.0,59.2,30.09,SE,141,2.0,3.0,46,0.00,,,0.00,886.0,meteobridge,2015-07-05 18:07:00,
2015-07-05 14:12:00,82.0,61.0,30.09,WSW,240,2.0,3.0,49,0.00,,,0.00,705.0,meteobridge,2015-07-05 18:12:00,
2015-07-05 14:17:00,82.0,61.0,30.09,SE,143,2.0,5.0,49,0.00,,,0.00,779.0,meteobridge,2015-07-05 18:17:00,
2015-07-05 14:22:00,82.0,58.6,30.09,ENE,69,0.0,3.0,45,0.00,,,0.00,798.0,meteobridge,2015-07-05 18:22:00,
2015-07-05 14:27:00,82.0,59.9,30.09,South,185,0.0,2.0,47,0.00,,,0.00,819.0,meteobridge,2015-07-05 18:27:00,
2015-07-05 14:32:00,82.2,60.6,30.09,ENE,74,2.0,9.0,48,0.00,,,0.00,823.0,meteobridge,2015-07-05 18:32:00,
2015-07-05 14:37:00,81.9,60.3,30.09,SSE,160,0.9,5.0,48,0.00,,,0.00,847.0,meteobridge,2015-07-05 18:37:00,
2015-07-05 14:42:00,82.2,61.2,30.09,SE,135,2.0,3.0,49,0.00,,,0.00,791.0,meteobridge,2015-07-05 18:42:00,
2015-07-05 14:47:00,82.2,60.6,30.09,NNE,33,2.0,6.0,48,0.00,,,0.00,788.0,meteobridge,2015-07-05 18:47:00,
2015-07-05 14:52:00,82.2,61.2,30.09,NNE,32,0.0,1.0,49,0.00,,,0.00,831.0,meteobridge,2015-07-05 18:52:00,
2015-07-05 14:57:00,83.1,62.6,30.09,East,92,0.9,3.0,50,0.00,,,0.00,789.0,meteobridge,2015-07-05 18:57:00,
2015-07-05 15:02:00,83.5,60.4,30.09,ENE,71,0.0,7.0,46,0.00,,,0.00,719.0,meteobridge,2015-07-05 19:02:00,
2015-07-05 15:07:00,83.1,62.1,30.08,South,180,2.0,4.0,49,0.00,,,0.00,800.0,meteobridge,2015-07-05 19:07:00,
2015-07-05 15:12:00,83.5,59.9,30.08,South,178,0.0,1.0,45,0.00,,,0.00,749.0,meteobridge,2015-07-05 19:12:00,
2015-07-05 15:17:00,83.8,60.3,30.08,East,89,2.9,5.0,45,0.00,,,0.00,640.0,meteobridge,2015-07-05 19:17:00,
2015-07-05 15:22:00,82.9,60.1,30.08,East,84,2.0,5.0,46,0.00,,,0.00,666.0,meteobridge,2015-07-05 19:22:00,
2015-07-05 15:32:00,81.7,59.5,30.08,East,101,0.9,6.0,47,0.00,,,0.00,647.0,meteobridge,2015-07-05 19:32:00,
2015-07-05 15:37:00,81.1,61.3,30.07,ENE,60,2.9,3.0,51,0.00,,,0.00,689.0,meteobridge,2015-07-05 19:37:00,
2015-07-05 15:42:00,80.8,58.1,30.07,NNE,31,0.9,3.0,46,0.00,,,0.00,740.0,meteobridge,2015-07-05 19:42:00,
2015-07-05 15:47:00,81.3,59.7,30.07,SE,142,2.0,4.0,48,0.00,,,0.00,729.0,meteobridge,2015-07-05 19:47:00,
2015-07-05 15:52:00,81.7,61.9,30.08,West,259,0.0,3.0,51,0.00,,,0.00,705.0,meteobridge,2015-07-05 19:52:00,
2015-07-05 15:57:00,82.6,62.1,30.07,SE,145,2.0,6.0,50,0.00,,,0.00,696.0,meteobridge,2015-07-05 19:57:00,
2015-07-05 16:03:00,82.9,60.6,30.07,South,183,0.9,3.0,47,0.00,,,0.00,689.0,meteobridge,2015-07-05 20:03:00,
2015-07-05 16:13:00,82.8,61.0,30.07,ENE,69,2.0,9.0,48,0.00,,,0.00,656.0,meteobridge,2015-07-05 20:13:00,
2015-07-05 16:18:00,82.8,62.8,30.07,ESE,119,2.0,3.0,51,0.00,,,0.00,599.0,meteobridge,2015-07-05 20:18:00,
2015-07-05 16:23:00,82.6,61.0,30.06,ENE,78,0.0,3.0,48,0.00,,,0.00,585.0,meteobridge,2015-07-05 20:23:00,
2015-07-05 16:28:00,82.6,62.1,30.06,ENE,78,0.0,3.0,50,0.00,,,0.00,578.0,meteobridge,2015-07-05 20:28:00,
2015-07-05 16:33:00,82.8,63.9,30.06,SSE,153,2.0,5.0,53,0.00,,,0.00,617.0,meteobridge,2015-07-05 20:33:00,
2015-07-05 16:38:00,82.6,61.0,30.06,SE,140,4.0,4.0,48,0.00,,,0.00,605.0,meteobridge,2015-07-05 20:38:00,
2015-07-05 16:43:00,82.4,61.3,30.06,South,173,4.9,5.0,49,0.00,,,0.00,555.0,meteobridge,2015-07-05 20:43:00,
2015-07-05 16:48:00,82.6,62.6,30.06,South,171,0.9,1.0,51,0.00,,,0.00,571.0,meteobridge,2015-07-05 20:48:00,
2015-07-05 16:53:00,82.6,61.5,30.06,SE,134,0.9,3.0,49,0.00,,,0.00,529.0,meteobridge,2015-07-05 20:53:00,
2015-07-05 16:58:00,82.0,61.5,30.06,NE,54,2.9,3.0,50,0.00,,,0.00,494.0,meteobridge,2015-07-05 20:58:00,
2015-07-05 17:03:00,81.7,61.9,30.06,ENE,75,2.0,3.0,51,0.00,,,0.00,587.0,meteobridge,2015-07-05 21:03:00,
2015-07-05 17:08:00,81.9,62.4,30.06,ENE,75,0.9,1.0,52,0.00,,,0.00,540.0,meteobridge,2015-07-05 21:08:00,
2015-07-05 17:18:00,81.9,62.4,30.06,ENE,78,2.0,4.0,52,0.00,,,0.00,536.0,meteobridge,2015-07-05 21:18:00,